Aérodrome :
LOGIN :

S'inscrire | Disclaimer

   EN    FR    IT 

 










Légende :    VFR   VFR Marginal   IFR   IFR Intensif   IFR Très Intensif
Visi : 
Plafond : 
>= 8 km
>= 3000ft
5 à 8 km
1000 à 3000 ft
1500m à 5 km
500 à 1000 ft
800 à 1500m
200 à 500 ft
< 800m
< 200 ft
Symboles :   Orages  Brouillard  Fortes neiges  Fortes précipitations  Vent > 20 kt
SIGMETs :   Divers  Orages  Givrage  Turbulence  Onde Orograph.  Cendres Volcan.







- Altitude de l'aérodrome : 0 ft


ETEB - Ansbach Army Heliport

DERNIER METAR :
  • 201456Z 15004KT 9999 CLR 17/16 A2997 RMK AO2A LTG DSNT SE RAE45 TSE32 SLP150 P0004 60006 T01660164 $

METARs EXPIRÉS :
  • 201432Z 17006KT 9999 -RA FEW011 17/17 A2997 RMK AO2A TSE32 SLP150 $
  • 201356Z 21004KT 9999 -TSRA BKN032 18/16 A2996 RMK AO2A DZB07E16RAB27 TSB27E42TSB53 SLP147 P0002 T01750163 $
  • 201342Z AUTO 19003KT 2800 +RA BR BKN031 BKN070 BKN095 18/17 A2996 RMK AO2 VIS 2200V9000 DZB07E16RAB27 SLP147 $
  • 201316Z AUTO 29007KT 9999 FEW055 21/15 A2994 RMK AO2 LTG DSNT SW DZB07E16 SLP136 $

TAF TAF ETEB
Valide du 20 à 13h jusqu'au 21 à 19h UTC


201258Z 2013/2119 26006KT 8000 -SHRA SCT040 BKN050 QNH2993INS
TEMPO 2013/2016 27012G18KT 6000 -TSRA BKN040CB
BECMG 2016/2017 26006KT 9999 NSW SCT040 QNH2995INS
TEMPO 2101/2105 8000 BR BKN030
BECMG 2108/2109 32009KT 9999 SCT040 QNH3007INS TX24/2013Z TN14/2102Z
Pas de NOTAMs connus pour ce terrain.



MET'MAP, la Météo Aéronautique d'un coup d'oeil ! - Copyright ORBIFLY Décembre 2007 - Disclaimer

ORBIFLY MET'MAP TEAM :

Programmation & Développement : Alexandra Zaïnal
Conception & Développement : Baudouin d'Aumeries
Co-Programmation & Développement : Marc-Olivier Méhu
Soutien technique & logistique : Manuel Goepfert

Contact : metmap@orbifly.com




SOURCES & CREDITS :

   NOAA